sensor_id;sensor_type;location;lat;lon;timestamp;temperature;humidity
3944;DHT22;1986;52.546;13.428;2023-07-29T00:01:30;21.40;99.90
3944;DHT22;1986;52.546;13.428;2023-07-29T00:03:59;21.30;99.90
3944;DHT22;1986;52.546;13.428;2023-07-29T00:06:26;21.30;99.90
3944;DHT22;1986;52.546;13.428;2023-07-29T00:08:53;21.30;99.90
3944;DHT22;1986;52.546;13.428;2023-07-29T00:11:20;21.30;99.90
3944;DHT22;1986;52.546;13.428;2023-07-29T00:13:47;21.30;99.90
3944;DHT22;1986;52.546;13.428;2023-07-29T00:16:15;21.30;99.90
3944;DHT22;1986;52.546;13.428;2023-07-29T00:18:42;21.30;99.90
3944;DHT22;1986;52.546;13.428;2023-07-29T00:21:11;21.30;99.90
3944;DHT22;1986;52.546;13.428;2023-07-29T00:23:38;21.30;99.90
3944;DHT22;1986;52.546;13.428;2023-07-29T00:26:05;21.30;99.90
3944;DHT22;1986;52.546;13.428;2023-07-29T00:28:32;21.40;99.90
3944;DHT22;1986;52.546;13.428;2023-07-29T00:30:59;21.40;99.90
3944;DHT22;1986;52.546;13.428;2023-07-29T00:33:26;21.40;99.90
3944;DHT22;1986;52.546;13.428;2023-07-29T00:35:53;21.40;99.90
3944;DHT22;1986;52.546;13.428;2023-07-29T00:38:21;21.50;99.90
3944;DHT22;1986;52.546;13.428;2023-07-29T00:40:48;21.50;99.90
3944;DHT22;1986;52.546;13.428;2023-07-29T00:43:15;21.60;99.90
3944;DHT22;1986;52.546;13.428;2023-07-29T00:45:45;21.60;99.90
3944;DHT22;1986;52.546;13.428;2023-07-29T00:48:12;21.60;99.90
3944;DHT22;1986;52.546;13.428;2023-07-29T00:50:39;21.60;99.90
3944;DHT22;1986;52.546;13.428;2023-07-29T00:53:09;21.60;99.90
3944;DHT22;1986;52.546;13.428;2023-07-29T00:55:37;21.60;99.90
3944;DHT22;1986;52.546;13.428;2023-07-29T00:58:04;21.60;99.90
3944;DHT22;1986;52.546;13.428;2023-07-29T01:00:31;21.70;99.90
3944;DHT22;1986;52.546;13.428;2023-07-29T01:02:58;21.70;99.90
3944;DHT22;1986;52.546;13.428;2023-07-29T01:05:29;21.60;99.90
3944;DHT22;1986;52.546;13.428;2023-07-29T01:08:03;21.70;99.90
3944;DHT22;1986;52.546;13.428;2023-07-29T01:10:40;21.70;99.90
3944;DHT22;1986;52.546;13.428;2023-07-29T01:13:16;21.70;99.90
3944;DHT22;1986;52.546;13.428;2023-07-29T01:15:48;21.70;99.90
3944;DHT22;1986;52.546;13.428;2023-07-29T01:18:25;21.70;99.90
3944;DHT22;1986;52.546;13.428;2023-07-29T01:20:54;21.70;99.90
3944;DHT22;1986;52.546;13.428;2023-07-29T01:23:29;21.70;99.90
3944;DHT22;1986;52.546;13.428;2023-07-29T01:25:57;21.70;99.90
3944;DHT22;1986;52.546;13.428;2023-07-29T01:28:26;21.60;99.90
3944;DHT22;1986;52.546;13.428;2023-07-29T01:31:03;21.60;99.90
3944;DHT22;1986;52.546;13.428;2023-07-29T01:33:39;21.70;99.90
3944;DHT22;1986;52.546;13.428;2023-07-29T01:36:11;21.60;99.90
3944;DHT22;1986;52.546;13.428;2023-07-29T01:38:41;21.60;99.90
3944;DHT22;1986;52.546;13.428;2023-07-29T01:41:10;21.70;99.90
3944;DHT22;1986;52.546;13.428;2023-07-29T01:43:37;21.80;99.90
3944;DHT22;1986;52.546;13.428;2023-07-29T01:46:09;21.80;99.90
3944;DHT22;1986;52.546;13.428;2023-07-29T01:48:37;21.80;99.90
3944;DHT22;1986;52.546;13.428;2023-07-29T01:51:04;21.80;99.90
3944;DHT22;1986;52.546;13.428;2023-07-29T01:53:31;21.70;99.90
3944;DHT22;1986;52.546;13.428;2023-07-29T01:56:00;21.70;99.90
3944;DHT22;1986;52.546;13.428;2023-07-29T01:58:27;21.60;99.90
3944;DHT22;1986;52.546;13.428;2023-07-29T02:00:53;21.60;99.90
3944;DHT22;1986;52.546;13.428;2023-07-29T02:03:21;21.70;99.90
3944;DHT22;1986;52.546;13.428;2023-07-29T02:05:50;21.80;99.90
3944;DHT22;1986;52.546;13.428;2023-07-29T02:08:17;21.70;99.90
3944;DHT22;1986;52.546;13.428;2023-07-29T02:10:44;21.70;99.90
3944;DHT22;1986;52.546;13.428;2023-07-29T02:13:12;21.60;99.90
3944;DHT22;1986;52.546;13.428;2023-07-29T02:15:39;21.60;99.90
3944;DHT22;1986;52.546;13.428;2023-07-29T02:18:06;21.60;99.90
3944;DHT22;1986;52.546;13.428;2023-07-29T02:20:33;21.60;99.90
3944;DHT22;1986;52.546;13.428;2023-07-29T02:23:00;21.60;99.90
3944;DHT22;1986;52.546;13.428;2023-07-29T02:25:27;21.60;99.90
3944;DHT22;1986;52.546;13.428;2023-07-29T02:27:54;21.60;99.90
3944;DHT22;1986;52.546;13.428;2023-07-29T02:30:22;21.60;99.90
3944;DHT22;1986;52.546;13.428;2023-07-29T02:32:49;21.60;99.90
3944;DHT22;1986;52.546;13.428;2023-07-29T02:35:16;21.60;99.90
3944;DHT22;1986;52.546;13.428;2023-07-29T02:37:43;21.60;99.90
3944;DHT22;1986;52.546;13.428;2023-07-29T02:40:11;21.70;99.90
3944;DHT22;1986;52.546;13.428;2023-07-29T02:42:38;21.70;99.90
3944;DHT22;1986;52.546;13.428;2023-07-29T02:45:06;21.70;99.90
3944;DHT22;1986;52.546;13.428;2023-07-29T02:47:36;21.70;99.90
3944;DHT22;1986;52.546;13.428;2023-07-29T02:50:04;21.70;99.90
3944;DHT22;1986;52.546;13.428;2023-07-29T02:52:31;21.70;99.90
3944;DHT22;1986;52.546;13.428;2023-07-29T02:54:58;21.60;99.90
3944;DHT22;1986;52.546;13.428;2023-07-29T02:57:25;21.60;99.90
3944;DHT22;1986;52.546;13.428;2023-07-29T02:59:52;21.70;99.90
3944;DHT22;1986;52.546;13.428;2023-07-29T03:02:19;21.60;99.90
3944;DHT22;1986;52.546;13.428;2023-07-29T03:04:49;21.60;99.90
3944;DHT22;1986;52.546;13.428;2023-07-29T03:07:16;21.50;99.90
3944;DHT22;1986;52.546;13.428;2023-07-29T03:09:43;21.50;99.90
3944;DHT22;1986;52.546;13.428;2023-07-29T03:12:10;21.50;99.90
3944;DHT22;1986;52.546;13.428;2023-07-29T03:14:37;21.50;99.90
3944;DHT22;1986;52.546;13.428;2023-07-29T03:17:05;21.50;99.90
3944;DHT22;1986;52.546;13.428;2023-07-29T03:19:32;21.50;99.90
3944;DHT22;1986;52.546;13.428;2023-07-29T03:22:00;21.60;99.90
3944;DHT22;1986;52.546;13.428;2023-07-29T03:24:27;21.60;99.90
3944;DHT22;1986;52.546;13.428;2023-07-29T03:26:54;21.60;99.90
3944;DHT22;1986;52.546;13.428;2023-07-29T03:29:22;21.60;99.90
3944;DHT22;1986;52.546;13.428;2023-07-29T03:31:49;21.60;99.90
3944;DHT22;1986;52.546;13.428;2023-07-29T03:34:15;21.50;99.90
3944;DHT22;1986;52.546;13.428;2023-07-29T03:36:42;21.60;99.90
3944;DHT22;1986;52.546;13.428;2023-07-29T03:39:13;21.60;99.90
3944;DHT22;1986;52.546;13.428;2023-07-29T03:41:40;21.60;99.90
3944;DHT22;1986;52.546;13.428;2023-07-29T03:44:07;21.60;99.90
3944;DHT22;1986;52.546;13.428;2023-07-29T03:46:34;21.60;99.90
3944;DHT22;1986;52.546;13.428;2023-07-29T03:49:01;21.60;99.90
3944;DHT22;1986;52.546;13.428;2023-07-29T03:51:28;21.60;99.90
3944;DHT22;1986;52.546;13.428;2023-07-29T03:53:55;21.70;99.90
3944;DHT22;1986;52.546;13.428;2023-07-29T03:56:23;21.70;99.90
3944;DHT22;1986;52.546;13.428;2023-07-29T03:58:51;21.70;99.90
3944;DHT22;1986;52.546;13.428;2023-07-29T04:01:19;21.70;99.90
3944;DHT22;1986;52.546;13.428;2023-07-29T04:03:46;21.70;99.90
3944;DHT22;1986;52.546;13.428;2023-07-29T04:06:13;21.70;99.90
3944;DHT22;1986;52.546;13.428;2023-07-29T04:08:40;21.80;99.90
3944;DHT22;1986;52.546;13.428;2023-07-29T04:11:07;21.80;99.90
3944;DHT22;1986;52.546;13.428;2023-07-29T04:13:36;21.80;99.90
3944;DHT22;1986;52.546;13.428;2023-07-29T04:16:03;21.80;99.90
3944;DHT22;1986;52.546;13.428;2023-07-29T04:18:30;21.80;99.90
3944;DHT22;1986;52.546;13.428;2023-07-29T04:20:57;21.90;99.90
3944;DHT22;1986;52.546;13.428;2023-07-29T04:23:24;21.90;99.90
3944;DHT22;1986;52.546;13.428;2023-07-29T04:25:51;22.00;99.90
3944;DHT22;1986;52.546;13.428;2023-07-29T04:28:18;21.90;99.90
3944;DHT22;1986;52.546;13.428;2023-07-29T04:30:47;21.90;99.90
3944;DHT22;1986;52.546;13.428;2023-07-29T04:33:14;22.00;99.90
3944;DHT22;1986;52.546;13.428;2023-07-29T04:35:41;21.90;99.90
3944;DHT22;1986;52.546;13.428;2023-07-29T04:38:08;22.00;99.90
3944;DHT22;1986;52.546;13.428;2023-07-29T04:40:35;22.10;99.90
3944;DHT22;1986;52.546;13.428;2023-07-29T04:43:02;22.20;99.90
3944;DHT22;1986;52.546;13.428;2023-07-29T04:45:29;22.30;99.90
3944;DHT22;1986;52.546;13.428;2023-07-29T04:47:58;22.40;99.90
3944;DHT22;1986;52.546;13.428;2023-07-29T04:50:25;22.40;99.90
3944;DHT22;1986;52.546;13.428;2023-07-29T04:52:52;22.30;99.90
3944;DHT22;1986;52.546;13.428;2023-07-29T04:55:19;22.50;99.90
3944;DHT22;1986;52.546;13.428;2023-07-29T04:57:46;22.60;99.90
3944;DHT22;1986;52.546;13.428;2023-07-29T05:00:14;22.50;99.90
3944;DHT22;1986;52.546;13.428;2023-07-29T05:02:41;22.60;99.90
3944;DHT22;1986;52.546;13.428;2023-07-29T05:05:09;22.40;99.90
3944;DHT22;1986;52.546;13.428;2023-07-29T05:07:36;22.20;99.90
3944;DHT22;1986;52.546;13.428;2023-07-29T05:10:04;22.40;99.90
3944;DHT22;1986;52.546;13.428;2023-07-29T05:12:31;22.30;99.90
3944;DHT22;1986;52.546;13.428;2023-07-29T05:14:58;22.30;99.90
3944;DHT22;1986;52.546;13.428;2023-07-29T05:17:25;22.30;99.90
3944;DHT22;1986;52.546;13.428;2023-07-29T05:19:52;22.50;99.90
3944;DHT22;1986;52.546;13.428;2023-07-29T05:22:20;22.70;99.90
3944;DHT22;1986;52.546;13.428;2023-07-29T05:24:47;23.00;99.90
3944;DHT22;1986;52.546;13.428;2023-07-29T05:27:14;22.90;99.90
3944;DHT22;1986;52.546;13.428;2023-07-29T05:29:41;23.00;99.90
3944;DHT22;1986;52.546;13.428;2023-07-29T05:32:08;22.90;99.90
3944;DHT22;1986;52.546;13.428;2023-07-29T05:34:35;22.70;99.90
3944;DHT22;1986;52.546;13.428;2023-07-29T05:37:02;22.50;99.90
3944;DHT22;1986;52.546;13.428;2023-07-29T05:39:31;22.30;99.90
3944;DHT22;1986;52.546;13.428;2023-07-29T05:42:01;22.70;99.90
3944;DHT22;1986;52.546;13.428;2023-07-29T05:44:29;22.30;99.90
3944;DHT22;1986;52.546;13.428;2023-07-29T05:46:56;22.30;99.90
3944;DHT22;1986;52.546;13.428;2023-07-29T05:49:23;22.50;99.90
3944;DHT22;1986;52.546;13.428;2023-07-29T05:51:51;22.60;99.90
3944;DHT22;1986;52.546;13.428;2023-07-29T05:54:19;22.60;99.90
3944;DHT22;1986;52.546;13.428;2023-07-29T05:56:47;22.70;99.90
3944;DHT22;1986;52.546;13.428;2023-07-29T05:59:14;22.50;99.90
3944;DHT22;1986;52.546;13.428;2023-07-29T06:01:41;22.90;99.90
3944;DHT22;1986;52.546;13.428;2023-07-29T06:04:08;23.10;99.90
3944;DHT22;1986;52.546;13.428;2023-07-29T06:06:35;23.20;99.90
3944;DHT22;1986;52.546;13.428;2023-07-29T06:09:02;23.70;99.90
3944;DHT22;1986;52.546;13.428;2023-07-29T06:11:29;23.60;99.90
3944;DHT22;1986;52.546;13.428;2023-07-29T06:13:59;23.90;99.90
3944;DHT22;1986;52.546;13.428;2023-07-29T06:16:25;23.90;99.90
3944;DHT22;1986;52.546;13.428;2023-07-29T06:18:52;23.20;99.90
3944;DHT22;1986;52.546;13.428;2023-07-29T06:21:20;23.40;99.90
3944;DHT22;1986;52.546;13.428;2023-07-29T06:23:47;23.90;99.90
3944;DHT22;1986;52.546;13.428;2023-07-29T06:26:17;24.50;99.90
3944;DHT22;1986;52.546;13.428;2023-07-29T06:28:44;24.50;99.90
3944;DHT22;1986;52.546;13.428;2023-07-29T06:31:14;24.50;99.90
3944;DHT22;1986;52.546;13.428;2023-07-29T06:33:41;24.80;99.90
3944;DHT22;1986;52.546;13.428;2023-07-29T06:36:08;25.10;99.90
3944;DHT22;1986;52.546;13.428;2023-07-29T06:38:35;25.30;99.90
3944;DHT22;1986;52.546;13.428;2023-07-29T06:41:04;25.30;99.90
3944;DHT22;1986;52.546;13.428;2023-07-29T06:43:31;25.30;99.90
3944;DHT22;1986;52.546;13.428;2023-07-29T06:45:58;24.90;99.90
3944;DHT22;1986;52.546;13.428;2023-07-29T06:48:26;25.00;99.90
3944;DHT22;1986;52.546;13.428;2023-07-29T06:50:53;25.20;99.90
3944;DHT22;1986;52.546;13.428;2023-07-29T06:53:20;25.00;99.90
3944;DHT22;1986;52.546;13.428;2023-07-29T06:55:47;24.90;99.90
3944;DHT22;1986;52.546;13.428;2023-07-29T06:58:14;24.70;99.90
3944;DHT22;1986;52.546;13.428;2023-07-29T07:00:41;24.50;99.90
3944;DHT22;1986;52.546;13.428;2023-07-29T07:03:08;24.50;99.90
3944;DHT22;1986;52.546;13.428;2023-07-29T07:05:37;24.90;99.90
3944;DHT22;1986;52.546;13.428;2023-07-29T07:08:04;25.10;99.90
3944;DHT22;1986;52.546;13.428;2023-07-29T07:10:32;25.60;99.90
3944;DHT22;1986;52.546;13.428;2023-07-29T07:13:01;25.80;99.90
3944;DHT22;1986;52.546;13.428;2023-07-29T07:15:33;25.20;99.90
3944;DHT22;1986;52.546;13.428;2023-07-29T07:18:00;24.60;99.90
3944;DHT22;1986;52.546;13.428;2023-07-29T07:20:27;24.80;99.90
3944;DHT22;1986;52.546;13.428;2023-07-29T07:22:55;24.70;99.90
3944;DHT22;1986;52.546;13.428;2023-07-29T07:25:22;24.60;99.90
3944;DHT22;1986;52.546;13.428;2023-07-29T07:27:49;24.50;99.90
3944;DHT22;1986;52.546;13.428;2023-07-29T07:30:16;24.60;99.90
3944;DHT22;1986;52.546;13.428;2023-07-29T07:32:44;24.50;99.90
3944;DHT22;1986;52.546;13.428;2023-07-29T07:35:11;24.10;99.90
3944;DHT22;1986;52.546;13.428;2023-07-29T07:37:38;23.90;99.90
3944;DHT22;1986;52.546;13.428;2023-07-29T07:40:07;23.60;99.90
3944;DHT22;1986;52.546;13.428;2023-07-29T07:42:34;23.50;99.90
3944;DHT22;1986;52.546;13.428;2023-07-29T07:45:03;23.50;99.90
3944;DHT22;1986;52.546;13.428;2023-07-29T07:47:30;23.50;99.90
3944;DHT22;1986;52.546;13.428;2023-07-29T07:49:57;23.90;99.90
3944;DHT22;1986;52.546;13.428;2023-07-29T07:52:28;24.20;99.90
3944;DHT22;1986;52.546;13.428;2023-07-29T07:54:58;24.30;99.90
3944;DHT22;1986;52.546;13.428;2023-07-29T07:57:28;24.10;99.90
3944;DHT22;1986;52.546;13.428;2023-07-29T07:59:55;24.00;99.90
3944;DHT22;1986;52.546;13.428;2023-07-29T08:02:23;24.10;99.90
3944;DHT22;1986;52.546;13.428;2023-07-29T08:04:52;24.30;99.90
3944;DHT22;1986;52.546;13.428;2023-07-29T08:07:19;24.50;99.90
3944;DHT22;1986;52.546;13.428;2023-07-29T08:09:48;24.90;99.90
3944;DHT22;1986;52.546;13.428;2023-07-29T08:12:16;25.60;99.90
3944;DHT22;1986;52.546;13.428;2023-07-29T08:14:48;25.80;99.90
3944;DHT22;1986;52.546;13.428;2023-07-29T08:17:17;26.50;99.90
3944;DHT22;1986;52.546;13.428;2023-07-29T08:19:44;26.70;99.90
3944;DHT22;1986;52.546;13.428;2023-07-29T08:22:11;27.40;99.90
3944;DHT22;1986;52.546;13.428;2023-07-29T08:24:38;27.40;99.90
3944;DHT22;1986;52.546;13.428;2023-07-29T08:27:06;28.40;99.90
3944;DHT22;1986;52.546;13.428;2023-07-29T08:29:33;27.90;99.90
3944;DHT22;1986;52.546;13.428;2023-07-29T08:32:07;27.60;99.90
3944;DHT22;1986;52.546;13.428;2023-07-29T08:34:36;27.10;99.90
3944;DHT22;1986;52.546;13.428;2023-07-29T08:37:06;26.00;99.90
3944;DHT22;1986;52.546;13.428;2023-07-29T08:39:33;25.60;99.90
3944;DHT22;1986;52.546;13.428;2023-07-29T08:42:02;25.40;99.90
3944;DHT22;1986;52.546;13.428;2023-07-29T08:44:39;25.10;99.90
3944;DHT22;1986;52.546;13.428;2023-07-29T08:47:09;25.20;99.90
3944;DHT22;1986;52.546;13.428;2023-07-29T08:49:36;24.90;99.90
3944;DHT22;1986;52.546;13.428;2023-07-29T08:52:04;24.80;99.90
3944;DHT22;1986;52.546;13.428;2023-07-29T08:54:32;24.80;99.90
3944;DHT22;1986;52.546;13.428;2023-07-29T08:57:00;25.00;99.90
3944;DHT22;1986;52.546;13.428;2023-07-29T08:59:29;25.10;99.90
3944;DHT22;1986;52.546;13.428;2023-07-29T09:02:00;25.20;99.90
3944;DHT22;1986;52.546;13.428;2023-07-29T09:04:47;25.00;99.90
3944;DHT22;1986;52.546;13.428;2023-07-29T09:07:14;25.10;99.90
3944;DHT22;1986;52.546;13.428;2023-07-29T09:09:42;25.10;99.90
3944;DHT22;1986;52.546;13.428;2023-07-29T09:12:10;25.30;99.90
3944;DHT22;1986;52.546;13.428;2023-07-29T09:14:38;25.40;99.90
3944;DHT22;1986;52.546;13.428;2023-07-29T09:17:07;25.80;99.90
3944;DHT22;1986;52.546;13.428;2023-07-29T09:19:35;25.60;99.90
3944;DHT22;1986;52.546;13.428;2023-07-29T09:22:04;25.30;99.90
3944;DHT22;1986;52.546;13.428;2023-07-29T09:24:31;25.20;99.90
3944;DHT22;1986;52.546;13.428;2023-07-29T09:26:59;25.10;99.90
3944;DHT22;1986;52.546;13.428;2023-07-29T09:29:28;25.20;99.90
3944;DHT22;1986;52.546;13.428;2023-07-29T09:32:18;25.20;99.90
3944;DHT22;1986;52.546;13.428;2023-07-29T09:34:45;25.20;99.90
3944;DHT22;1986;52.546;13.428;2023-07-29T09:37:21;25.20;99.90
3944;DHT22;1986;52.546;13.428;2023-07-29T09:39:49;25.20;99.90
3944;DHT22;1986;52.546;13.428;2023-07-29T09:42:18;25.60;99.90
3944;DHT22;1986;52.546;13.428;2023-07-29T09:44:48;25.80;99.90
3944;DHT22;1986;52.546;13.428;2023-07-29T09:47:22;25.80;99.90
3944;DHT22;1986;52.546;13.428;2023-07-29T09:49:51;25.70;99.90
3944;DHT22;1986;52.546;13.428;2023-07-29T09:52:23;25.40;99.90
3944;DHT22;1986;52.546;13.428;2023-07-29T09:54:52;25.30;99.90
3944;DHT22;1986;52.546;13.428;2023-07-29T09:57:19;25.50;99.90
3944;DHT22;1986;52.546;13.428;2023-07-29T09:59:54;25.60;99.90
3944;DHT22;1986;52.546;13.428;2023-07-29T10:02:24;25.90;99.90
3944;DHT22;1986;52.546;13.428;2023-07-29T10:04:55;25.70;99.90
3944;DHT22;1986;52.546;13.428;2023-07-29T10:07:24;25.70;99.90
3944;DHT22;1986;52.546;13.428;2023-07-29T10:09:52;25.70;99.90
3944;DHT22;1986;52.546;13.428;2023-07-29T10:12:19;25.60;99.90
3944;DHT22;1986;52.546;13.428;2023-07-29T10:14:47;25.70;99.90
3944;DHT22;1986;52.546;13.428;2023-07-29T10:17:15;25.50;99.90
3944;DHT22;1986;52.546;13.428;2023-07-29T10:19:43;25.70;99.90
3944;DHT22;1986;52.546;13.428;2023-07-29T10:22:12;25.50;99.90
3944;DHT22;1986;52.546;13.428;2023-07-29T10:24:43;25.40;99.90
3944;DHT22;1986;52.546;13.428;2023-07-29T10:27:11;25.40;99.90
3944;DHT22;1986;52.546;13.428;2023-07-29T10:29:42;25.60;99.90
3944;DHT22;1986;52.546;13.428;2023-07-29T10:32:13;26.10;99.90
3944;DHT22;1986;52.546;13.428;2023-07-29T10:34:40;25.70;99.90
3944;DHT22;1986;52.546;13.428;2023-07-29T10:37:08;25.90;99.90
3944;DHT22;1986;52.546;13.428;2023-07-29T10:39:39;25.90;99.90
3944;DHT22;1986;52.546;13.428;2023-07-29T10:42:08;26.20;99.90
3944;DHT22;1986;52.546;13.428;2023-07-29T10:44:53;26.40;99.90
3944;DHT22;1986;52.546;13.428;2023-07-29T10:47:22;26.60;99.90
3944;DHT22;1986;52.546;13.428;2023-07-29T10:49:52;25.90;99.90
3944;DHT22;1986;52.546;13.428;2023-07-29T10:52:32;26.00;99.90
3944;DHT22;1986;52.546;13.428;2023-07-29T10:55:24;26.00;99.90
3944;DHT22;1986;52.546;13.428;2023-07-29T10:58:04;26.00;99.90
3944;DHT22;1986;52.546;13.428;2023-07-29T11:00:32;26.00;99.90
3944;DHT22;1986;52.546;13.428;2023-07-29T11:03:01;26.00;99.90
3944;DHT22;1986;52.546;13.428;2023-07-29T11:05:46;26.10;99.90
3944;DHT22;1986;52.546;13.428;2023-07-29T11:08:21;25.70;99.90
3944;DHT22;1986;52.546;13.428;2023-07-29T11:11:08;25.80;99.90
3944;DHT22;1986;52.546;13.428;2023-07-29T11:13:37;25.70;99.90
3944;DHT22;1986;52.546;13.428;2023-07-29T11:16:05;25.50;99.90
3944;DHT22;1986;52.546;13.428;2023-07-29T11:18:34;25.30;99.90
3944;DHT22;1986;52.546;13.428;2023-07-29T11:21:02;25.10;99.90
3944;DHT22;1986;52.546;13.428;2023-07-29T11:23:37;23.40;99.90
3944;DHT22;1986;52.546;13.428;2023-07-29T11:26:05;22.20;99.90
3944;DHT22;1986;52.546;13.428;2023-07-29T11:28:39;21.30;99.90
3944;DHT22;1986;52.546;13.428;2023-07-29T11:31:07;21.00;99.90
3944;DHT22;1986;52.546;13.428;2023-07-29T11:33:34;20.70;99.90
3944;DHT22;1986;52.546;13.428;2023-07-29T11:36:01;20.50;99.90
3944;DHT22;1986;52.546;13.428;2023-07-29T11:38:28;20.50;99.90
3944;DHT22;1986;52.546;13.428;2023-07-29T11:41:00;20.60;99.90
3944;DHT22;1986;52.546;13.428;2023-07-29T11:43:30;20.60;99.90
3944;DHT22;1986;52.546;13.428;2023-07-29T11:46:03;20.60;99.90
3944;DHT22;1986;52.546;13.428;2023-07-29T11:48:32;20.90;99.90
3944;DHT22;1986;52.546;13.428;2023-07-29T11:51:02;21.00;99.90
3944;DHT22;1986;52.546;13.428;2023-07-29T11:53:31;21.10;99.90
3944;DHT22;1986;52.546;13.428;2023-07-29T11:56:02;21.30;99.90
3944;DHT22;1986;52.546;13.428;2023-07-29T11:58:44;21.20;99.90
3944;DHT22;1986;52.546;13.428;2023-07-29T12:01:13;21.20;99.90
3944;DHT22;1986;52.546;13.428;2023-07-29T12:03:41;21.50;99.90
3944;DHT22;1986;52.546;13.428;2023-07-29T12:06:10;21.40;99.90
3944;DHT22;1986;52.546;13.428;2023-07-29T12:08:38;21.70;99.90
3944;DHT22;1986;52.546;13.428;2023-07-29T12:11:08;21.60;99.90
3944;DHT22;1986;52.546;13.428;2023-07-29T12:13:36;21.80;99.90
3944;DHT22;1986;52.546;13.428;2023-07-29T12:16:04;21.80;99.90
3944;DHT22;1986;52.546;13.428;2023-07-29T12:18:35;22.00;99.90
3944;DHT22;1986;52.546;13.428;2023-07-29T12:21:03;22.00;99.90
3944;DHT22;1986;52.546;13.428;2023-07-29T12:23:30;22.00;99.90
3944;DHT22;1986;52.546;13.428;2023-07-29T12:25:59;22.00;99.90
3944;DHT22;1986;52.546;13.428;2023-07-29T12:28:46;22.10;99.90
3944;DHT22;1986;52.546;13.428;2023-07-29T12:31:14;22.10;99.90
3944;DHT22;1986;52.546;13.428;2023-07-29T12:34:02;22.30;99.90
3944;DHT22;1986;52.546;13.428;2023-07-29T12:36:42;22.50;99.90
3944;DHT22;1986;52.546;13.428;2023-07-29T12:39:18;22.70;99.90
3944;DHT22;1986;52.546;13.428;2023-07-29T12:42:07;22.60;99.90
3944;DHT22;1986;52.546;13.428;2023-07-29T12:44:39;22.60;99.90
3944;DHT22;1986;52.546;13.428;2023-07-29T12:47:07;22.70;99.90
3944;DHT22;1986;52.546;13.428;2023-07-29T12:49:38;22.70;99.90
3944;DHT22;1986;52.546;13.428;2023-07-29T12:52:06;22.80;99.90
3944;DHT22;1986;52.546;13.428;2023-07-29T12:54:33;23.10;99.90
3944;DHT22;1986;52.546;13.428;2023-07-29T12:57:04;23.20;99.90
3944;DHT22;1986;52.546;13.428;2023-07-29T12:59:31;23.30;99.90
3944;DHT22;1986;52.546;13.428;2023-07-29T13:01:58;23.60;99.90
3944;DHT22;1986;52.546;13.428;2023-07-29T13:04:26;23.70;99.90
3944;DHT22;1986;52.546;13.428;2023-07-29T13:06:56;23.70;99.90
3944;DHT22;1986;52.546;13.428;2023-07-29T13:09:25;23.80;99.90
3944;DHT22;1986;52.546;13.428;2023-07-29T13:11:53;24.00;99.90
3944;DHT22;1986;52.546;13.428;2023-07-29T13:14:20;24.10;99.90
3944;DHT22;1986;52.546;13.428;2023-07-29T13:16:48;24.10;99.90
3944;DHT22;1986;52.546;13.428;2023-07-29T13:19:15;24.10;99.90
3944;DHT22;1986;52.546;13.428;2023-07-29T13:21:42;23.70;99.90
3944;DHT22;1986;52.546;13.428;2023-07-29T13:24:10;23.60;99.90
3944;DHT22;1986;52.546;13.428;2023-07-29T13:26:38;23.50;99.90
3944;DHT22;1986;52.546;13.428;2023-07-29T13:29:05;23.30;99.90
3944;DHT22;1986;52.546;13.428;2023-07-29T13:31:38;23.40;99.90
3944;DHT22;1986;52.546;13.428;2023-07-29T13:34:05;23.50;99.90
3944;DHT22;1986;52.546;13.428;2023-07-29T13:36:32;23.60;99.90
3944;DHT22;1986;52.546;13.428;2023-07-29T13:39:06;23.80;99.90
3944;DHT22;1986;52.546;13.428;2023-07-29T13:41:39;23.90;99.90
3944;DHT22;1986;52.546;13.428;2023-07-29T13:44:08;24.10;99.90
3944;DHT22;1986;52.546;13.428;2023-07-29T13:46:36;24.30;99.90
3944;DHT22;1986;52.546;13.428;2023-07-29T13:49:05;24.80;99.90
3944;DHT22;1986;52.546;13.428;2023-07-29T13:51:32;24.80;99.90
3944;DHT22;1986;52.546;13.428;2023-07-29T13:54:00;24.80;99.90
3944;DHT22;1986;52.546;13.428;2023-07-29T13:56:27;24.90;99.90
3944;DHT22;1986;52.546;13.428;2023-07-29T13:58:55;25.00;99.90
3944;DHT22;1986;52.546;13.428;2023-07-29T14:01:23;25.00;99.90
3944;DHT22;1986;52.546;13.428;2023-07-29T14:03:50;24.70;99.90
3944;DHT22;1986;52.546;13.428;2023-07-29T14:06:17;24.70;99.90
3944;DHT22;1986;52.546;13.428;2023-07-29T14:08:44;24.60;99.90
3944;DHT22;1986;52.546;13.428;2023-07-29T14:11:12;24.60;99.90
3944;DHT22;1986;52.546;13.428;2023-07-29T14:13:38;24.70;99.90
3944;DHT22;1986;52.546;13.428;2023-07-29T14:16:09;24.60;99.90
3944;DHT22;1986;52.546;13.428;2023-07-29T14:18:36;24.50;99.90
3944;DHT22;1986;52.546;13.428;2023-07-29T14:21:03;24.40;99.90
3944;DHT22;1986;52.546;13.428;2023-07-29T14:23:30;24.60;99.90
3944;DHT22;1986;52.546;13.428;2023-07-29T14:25:58;24.60;99.90
3944;DHT22;1986;52.546;13.428;2023-07-29T14:28:26;24.50;99.90
3944;DHT22;1986;52.546;13.428;2023-07-29T14:30:53;24.30;99.90
3944;DHT22;1986;52.546;13.428;2023-07-29T14:33:25;24.20;99.90
3944;DHT22;1986;52.546;13.428;2023-07-29T14:35:53;24.10;99.90
3944;DHT22;1986;52.546;13.428;2023-07-29T14:38:21;24.00;99.90
3944;DHT22;1986;52.546;13.428;2023-07-29T14:40:51;24.30;99.90
3944;DHT22;1986;52.546;13.428;2023-07-29T14:43:20;24.40;99.90
3944;DHT22;1986;52.546;13.428;2023-07-29T14:45:50;24.60;99.90
3944;DHT22;1986;52.546;13.428;2023-07-29T14:48:17;24.70;99.90
3944;DHT22;1986;52.546;13.428;2023-07-29T14:50:46;24.60;99.90
3944;DHT22;1986;52.546;13.428;2023-07-29T14:53:13;24.60;99.90
3944;DHT22;1986;52.546;13.428;2023-07-29T14:56:09;24.80;99.90
3944;DHT22;1986;52.546;13.428;2023-07-29T14:58:37;24.80;99.90
3944;DHT22;1986;52.546;13.428;2023-07-29T15:01:05;24.60;99.90
3944;DHT22;1986;52.546;13.428;2023-07-29T15:03:34;24.60;99.90
3944;DHT22;1986;52.546;13.428;2023-07-29T15:06:01;24.60;99.90
3944;DHT22;1986;52.546;13.428;2023-07-29T15:08:28;24.50;99.90
3944;DHT22;1986;52.546;13.428;2023-07-29T15:10:55;24.50;99.90
3944;DHT22;1986;52.546;13.428;2023-07-29T15:13:24;24.60;99.90
3944;DHT22;1986;52.546;13.428;2023-07-29T15:15:51;24.40;99.90
3944;DHT22;1986;52.546;13.428;2023-07-29T15:18:21;24.00;99.90
3944;DHT22;1986;52.546;13.428;2023-07-29T15:20:48;23.90;99.90
3944;DHT22;1986;52.546;13.428;2023-07-29T15:23:15;23.80;99.90
3944;DHT22;1986;52.546;13.428;2023-07-29T15:25:43;23.70;99.90
3944;DHT22;1986;52.546;13.428;2023-07-29T15:28:10;23.60;99.90
3944;DHT22;1986;52.546;13.428;2023-07-29T15:30:38;23.60;99.90
3944;DHT22;1986;52.546;13.428;2023-07-29T15:33:06;23.60;99.90
3944;DHT22;1986;52.546;13.428;2023-07-29T15:35:37;23.60;99.90
3944;DHT22;1986;52.546;13.428;2023-07-29T15:38:04;23.60;99.90
3944;DHT22;1986;52.546;13.428;2023-07-29T15:40:31;23.50;99.90
3944;DHT22;1986;52.546;13.428;2023-07-29T15:43:00;23.20;99.90
3944;DHT22;1986;52.546;13.428;2023-07-29T15:45:30;22.70;99.90
3944;DHT22;1986;52.546;13.428;2023-07-29T15:48:05;21.90;99.90
3944;DHT22;1986;52.546;13.428;2023-07-29T15:50:33;21.00;99.90
3944;DHT22;1986;52.546;13.428;2023-07-29T15:53:03;20.80;99.90
3944;DHT22;1986;52.546;13.428;2023-07-29T15:55:33;20.50;99.90